sensor_id;sensor_type;location;lat;lon;timestamp;P1;durP1;ratioP1;P2;durP2;ratioP2
15667;SDS011;7934;48.710;9.024;2023-03-04T00:02:21;84.47;;;32.87;;
15667;SDS011;7934;48.710;9.024;2023-03-04T00:04:48;72.03;;;30.00;;
15667;SDS011;7934;48.710;9.024;2023-03-04T00:07:15;73.90;;;30.20;;
15667;SDS011;7934;48.710;9.024;2023-03-04T00:09:43;74.30;;;30.23;;
15667;SDS011;7934;48.710;9.024;2023-03-04T00:12:10;70.57;;;31.13;;
15667;SDS011;7934;48.710;9.024;2023-03-04T00:14:38;75.50;;;29.87;;
15667;SDS011;7934;48.710;9.024;2023-03-04T00:17:05;72.80;;;30.43;;
15667;SDS011;7934;48.710;9.024;2023-03-04T00:19:33;75.57;;;31.33;;
15667;SDS011;7934;48.710;9.024;2023-03-04T00:22:00;68.07;;;29.80;;
15667;SDS011;7934;48.710;9.024;2023-03-04T00:24:28;77.27;;;30.73;;
15667;SDS011;7934;48.710;9.024;2023-03-04T00:26:55;69.57;;;29.10;;
15667;SDS011;7934;48.710;9.024;2023-03-04T00:29:22;69.67;;;30.50;;
15667;SDS011;7934;48.710;9.024;2023-03-04T00:31:49;68.40;;;30.87;;
15667;SDS011;7934;48.710;9.024;2023-03-04T00:34:16;67.83;;;30.73;;
15667;SDS011;7934;48.710;9.024;2023-03-04T00:36:44;72.37;;;31.60;;
15667;SDS011;7934;48.710;9.024;2023-03-04T00:39:12;72.90;;;30.43;;
15667;SDS011;7934;48.710;9.024;2023-03-04T00:41:39;70.47;;;28.83;;
15667;SDS011;7934;48.710;9.024;2023-03-04T00:44:06;65.00;;;29.30;;
15667;SDS011;7934;48.710;9.024;2023-03-04T00:46:33;79.27;;;30.23;;
15667;SDS011;7934;48.710;9.024;2023-03-04T00:49:01;67.80;;;30.07;;
15667;SDS011;7934;48.710;9.024;2023-03-04T00:51:28;74.63;;;29.83;;
15667;SDS011;7934;48.710;9.024;2023-03-04T00:53:56;75.43;;;29.30;;
15667;SDS011;7934;48.710;9.024;2023-03-04T00:56:23;67.77;;;28.70;;
15667;SDS011;7934;48.710;9.024;2023-03-04T00:58:50;72.57;;;30.17;;
15667;SDS011;7934;48.710;9.024;2023-03-04T01:01:17;71.73;;;28.67;;
15667;SDS011;7934;48.710;9.024;2023-03-04T01:03:45;74.97;;;30.33;;
15667;SDS011;7934;48.710;9.024;2023-03-04T01:06:12;66.27;;;29.30;;
15667;SDS011;7934;48.710;9.024;2023-03-04T01:08:39;72.03;;;30.23;;
15667;SDS011;7934;48.710;9.024;2023-03-04T01:11:07;82.53;;;31.07;;
15667;SDS011;7934;48.710;9.024;2023-03-04T01:13:35;97.77;;;40.83;;
15667;SDS011;7934;48.710;9.024;2023-03-04T01:16:04;73.30;;;32.17;;
15667;SDS011;7934;48.710;9.024;2023-03-04T01:18:31;78.93;;;32.50;;
15667;SDS011;7934;48.710;9.024;2023-03-04T01:20:58;80.77;;;31.17;;
15667;SDS011;7934;48.710;9.024;2023-03-04T01:23:25;70.63;;;31.07;;
15667;SDS011;7934;48.710;9.024;2023-03-04T01:25:52;75.40;;;32.20;;
15667;SDS011;7934;48.710;9.024;2023-03-04T01:28:21;71.23;;;29.93;;
15667;SDS011;7934;48.710;9.024;2023-03-04T01:30:48;79.90;;;31.07;;
15667;SDS011;7934;48.710;9.024;2023-03-04T01:33:15;72.07;;;30.10;;
15667;SDS011;7934;48.710;9.024;2023-03-04T01:35:42;80.67;;;32.37;;
15667;SDS011;7934;48.710;9.024;2023-03-04T01:38:09;70.37;;;30.80;;
15667;SDS011;7934;48.710;9.024;2023-03-04T01:40:38;73.43;;;29.97;;
15667;SDS011;7934;48.710;9.024;2023-03-04T01:43:05;71.13;;;29.93;;
15667;SDS011;7934;48.710;9.024;2023-03-04T01:45:34;67.37;;;27.87;;
15667;SDS011;7934;48.710;9.024;2023-03-04T01:48:02;78.07;;;30.83;;
15667;SDS011;7934;48.710;9.024;2023-03-04T01:50:29;72.97;;;30.03;;
15667;SDS011;7934;48.710;9.024;2023-03-04T01:52:57;71.57;;;30.80;;
15667;SDS011;7934;48.710;9.024;2023-03-04T01:55:24;80.03;;;29.90;;
15667;SDS011;7934;48.710;9.024;2023-03-04T01:57:52;75.37;;;31.97;;
15667;SDS011;7934;48.710;9.024;2023-03-04T02:00:21;72.70;;;30.60;;
15667;SDS011;7934;48.710;9.024;2023-03-04T02:02:51;77.17;;;30.77;;
15667;SDS011;7934;48.710;9.024;2023-03-04T02:05:19;81.57;;;31.43;;
15667;SDS011;7934;48.710;9.024;2023-03-04T02:07:47;76.27;;;31.60;;
15667;SDS011;7934;48.710;9.024;2023-03-04T02:10:15;82.40;;;32.50;;
15667;SDS011;7934;48.710;9.024;2023-03-04T02:12:45;80.23;;;31.37;;
15667;SDS011;7934;48.710;9.024;2023-03-04T02:15:12;72.63;;;29.23;;
15667;SDS011;7934;48.710;9.024;2023-03-04T02:17:39;75.87;;;31.37;;
15667;SDS011;7934;48.710;9.024;2023-03-04T02:20:11;73.17;;;31.97;;
15667;SDS011;7934;48.710;9.024;2023-03-04T02:22:42;77.57;;;31.03;;
15667;SDS011;7934;48.710;9.024;2023-03-04T02:25:14;76.07;;;29.50;;
15667;SDS011;7934;48.710;9.024;2023-03-04T02:27:45;73.17;;;32.20;;
15667;SDS011;7934;48.710;9.024;2023-03-04T02:33:11;62.60;;;30.40;;
15667;SDS011;7934;48.710;9.024;2023-03-04T02:36:43;75.17;;;29.93;;
15667;SDS011;7934;48.710;9.024;2023-03-04T02:55:22;64.57;;;28.73;;
15667;SDS011;7934;48.710;9.024;2023-03-04T02:58:24;66.93;;;30.63;;
15667;SDS011;7934;48.710;9.024;2023-03-04T03:01:10;72.30;;;30.20;;
15667;SDS011;7934;48.710;9.024;2023-03-04T03:04:07;69.03;;;29.63;;
15667;SDS011;7934;48.710;9.024;2023-03-04T03:06:57;73.63;;;29.27;;
15667;SDS011;7934;48.710;9.024;2023-03-04T03:09:47;67.63;;;29.57;;
15667;SDS011;7934;48.710;9.024;2023-03-04T03:12:19;67.30;;;28.73;;
15667;SDS011;7934;48.710;9.024;2023-03-04T03:14:46;74.13;;;31.30;;
15667;SDS011;7934;48.710;9.024;2023-03-04T03:17:13;81.07;;;31.30;;
15667;SDS011;7934;48.710;9.024;2023-03-04T03:19:40;71.23;;;28.40;;
15667;SDS011;7934;48.710;9.024;2023-03-04T03:22:08;81.80;;;31.53;;
15667;SDS011;7934;48.710;9.024;2023-03-04T03:24:35;68.90;;;28.13;;
15667;SDS011;7934;48.710;9.024;2023-03-04T03:27:02;71.47;;;29.87;;
15667;SDS011;7934;48.710;9.024;2023-03-04T03:29:31;67.23;;;29.57;;
15667;SDS011;7934;48.710;9.024;2023-03-04T03:31:58;77.20;;;28.90;;
15667;SDS011;7934;48.710;9.024;2023-03-04T03:34:25;74.43;;;30.33;;
15667;SDS011;7934;48.710;9.024;2023-03-04T03:37:32;74.37;;;29.67;;
15667;SDS011;7934;48.710;9.024;2023-03-04T03:40:07;79.90;;;29.53;;
15667;SDS011;7934;48.710;9.024;2023-03-04T04:23:38;67.23;;;28.20;;
15667;SDS011;7934;48.710;9.024;2023-03-04T04:39:32;67.07;;;28.23;;
15667;SDS011;7934;48.710;9.024;2023-03-04T05:21:33;70.77;;;26.97;;
15667;SDS011;7934;48.710;9.024;2023-03-04T06:40:33;74.23;;;25.80;;
15667;SDS011;7934;48.710;9.024;2023-03-04T06:46:08;62.70;;;26.87;;
15667;SDS011;7934;48.710;9.024;2023-03-04T06:51:45;69.90;;;28.13;;
15667;SDS011;7934;48.710;9.024;2023-03-04T06:55:15;82.57;;;29.67;;
15667;SDS011;7934;48.710;9.024;2023-03-04T07:00:11;77.53;;;30.77;;
15667;SDS011;7934;48.710;9.024;2023-03-04T07:02:39;79.17;;;30.57;;
15667;SDS011;7934;48.710;9.024;2023-03-04T07:05:20;83.37;;;33.47;;
15667;SDS011;7934;48.710;9.024;2023-03-04T07:07:48;72.70;;;30.00;;
15667;SDS011;7934;48.710;9.024;2023-03-04T07:10:15;72.70;;;30.80;;
15667;SDS011;7934;48.710;9.024;2023-03-04T07:15:55;72.73;;;28.47;;
15667;SDS011;7934;48.710;9.024;2023-03-04T07:18:51;73.23;;;28.97;;
15667;SDS011;7934;48.710;9.024;2023-03-04T07:24:59;83.40;;;28.17;;
15667;SDS011;7934;48.710;9.024;2023-03-04T07:30:47;71.23;;;27.60;;
15667;SDS011;7934;48.710;9.024;2023-03-04T07:33:32;64.10;;;26.07;;
15667;SDS011;7934;48.710;9.024;2023-03-04T07:36:00;72.27;;;26.33;;
15667;SDS011;7934;48.710;9.024;2023-03-04T07:38:41;72.77;;;27.77;;
15667;SDS011;7934;48.710;9.024;2023-03-04T07:41:09;83.33;;;30.53;;
15667;SDS011;7934;48.710;9.024;2023-03-04T07:43:36;77.27;;;28.30;;
15667;SDS011;7934;48.710;9.024;2023-03-04T07:46:04;71.27;;;28.43;;
15667;SDS011;7934;48.710;9.024;2023-03-04T07:48:32;73.47;;;28.63;;
15667;SDS011;7934;48.710;9.024;2023-03-04T08:00:24;73.87;;;27.60;;
15667;SDS011;7934;48.710;9.024;2023-03-04T08:02:53;63.60;;;26.97;;
15667;SDS011;7934;48.710;9.024;2023-03-04T08:05:30;54.30;;;25.77;;
15667;SDS011;7934;48.710;9.024;2023-03-04T08:09:07;52.47;;;23.20;;
15667;SDS011;7934;48.710;9.024;2023-03-04T08:14:31;50.60;;;22.20;;
15667;SDS011;7934;48.710;9.024;2023-03-04T08:16:58;50.70;;;23.03;;
15667;SDS011;7934;48.710;9.024;2023-03-04T08:19:27;48.90;;;21.13;;
15667;SDS011;7934;48.710;9.024;2023-03-04T08:22:13;47.60;;;20.90;;
15667;SDS011;7934;48.710;9.024;2023-03-04T08:24:41;52.07;;;22.10;;
15667;SDS011;7934;48.710;9.024;2023-03-04T08:27:10;52.40;;;21.80;;
15667;SDS011;7934;48.710;9.024;2023-03-04T08:29:38;57.47;;;24.83;;
15667;SDS011;7934;48.710;9.024;2023-03-04T08:32:24;57.10;;;23.73;;
15667;SDS011;7934;48.710;9.024;2023-03-04T08:43:52;53.47;;;23.20;;
15667;SDS011;7934;48.710;9.024;2023-03-04T08:46:19;50.60;;;22.20;;
15667;SDS011;7934;48.710;9.024;2023-03-04T08:48:49;51.23;;;23.67;;
15667;SDS011;7934;48.710;9.024;2023-03-04T08:51:16;51.13;;;25.57;;
15667;SDS011;7934;48.710;9.024;2023-03-04T08:53:44;51.77;;;23.40;;
15667;SDS011;7934;48.710;9.024;2023-03-04T08:56:11;51.40;;;22.50;;
15667;SDS011;7934;48.710;9.024;2023-03-04T08:58:39;45.33;;;22.73;;
15667;SDS011;7934;48.710;9.024;2023-03-04T09:01:11;45.13;;;21.67;;
15667;SDS011;7934;48.710;9.024;2023-03-04T09:03:39;43.20;;;21.67;;
15667;SDS011;7934;48.710;9.024;2023-03-04T09:06:07;47.93;;;20.57;;
15667;SDS011;7934;48.710;9.024;2023-03-04T09:08:34;41.67;;;19.93;;
15667;SDS011;7934;48.710;9.024;2023-03-04T09:11:02;44.93;;;23.10;;
15667;SDS011;7934;48.710;9.024;2023-03-04T09:13:29;41.37;;;20.87;;
15667;SDS011;7934;48.710;9.024;2023-03-04T09:16:07;45.07;;;21.50;;
15667;SDS011;7934;48.710;9.024;2023-03-04T09:22:01;47.07;;;19.50;;
15667;SDS011;7934;48.710;9.024;2023-03-04T09:24:36;42.90;;;20.43;;
15667;SDS011;7934;48.710;9.024;2023-03-04T09:29:54;36.07;;;18.67;;
15667;SDS011;7934;48.710;9.024;2023-03-04T09:32:29;34.60;;;18.33;;
15667;SDS011;7934;48.710;9.024;2023-03-04T09:34:57;33.17;;;17.93;;
15667;SDS011;7934;48.710;9.024;2023-03-04T09:37:25;36.40;;;20.03;;
15667;SDS011;7934;48.710;9.024;2023-03-04T09:39:52;39.50;;;19.10;;
15667;SDS011;7934;48.710;9.024;2023-03-04T09:42:21;38.57;;;19.87;;
15667;SDS011;7934;48.710;9.024;2023-03-04T09:44:50;35.77;;;19.53;;
15667;SDS011;7934;48.710;9.024;2023-03-04T09:47:19;36.33;;;19.30;;
15667;SDS011;7934;48.710;9.024;2023-03-04T09:49:50;38.40;;;20.03;;
15667;SDS011;7934;48.710;9.024;2023-03-04T09:52:22;35.87;;;20.63;;
15667;SDS011;7934;48.710;9.024;2023-03-04T09:54:57;42.60;;;20.77;;
15667;SDS011;7934;48.710;9.024;2023-03-04T09:57:27;32.53;;;18.97;;
15667;SDS011;7934;48.710;9.024;2023-03-04T10:00:02;40.33;;;20.47;;
15667;SDS011;7934;48.710;9.024;2023-03-04T10:02:34;34.70;;;20.93;;
15667;SDS011;7934;48.710;9.024;2023-03-04T10:05:04;36.37;;;20.27;;
15667;SDS011;7934;48.710;9.024;2023-03-04T10:07:32;32.33;;;19.97;;
15667;SDS011;7934;48.710;9.024;2023-03-04T10:10:03;38.08;;;22.88;;
15667;SDS011;7934;48.710;9.024;2023-03-04T10:12:31;39.17;;;21.27;;
15667;SDS011;7934;48.710;9.024;2023-03-04T10:15:00;36.90;;;21.53;;
15667;SDS011;7934;48.710;9.024;2023-03-04T10:17:29;37.20;;;21.83;;
15667;SDS011;7934;48.710;9.024;2023-03-04T10:20:02;37.13;;;20.53;;
15667;SDS011;7934;48.710;9.024;2023-03-04T10:22:32;38.37;;;20.93;;
15667;SDS011;7934;48.710;9.024;2023-03-04T10:25:01;35.83;;;20.40;;
15667;SDS011;7934;48.710;9.024;2023-03-04T10:27:35;34.47;;;20.83;;
15667;SDS011;7934;48.710;9.024;2023-03-04T10:30:03;34.30;;;20.17;;
15667;SDS011;7934;48.710;9.024;2023-03-04T10:32:37;36.10;;;19.87;;
15667;SDS011;7934;48.710;9.024;2023-03-04T10:35:11;32.20;;;20.43;;
15667;SDS011;7934;48.710;9.024;2023-03-04T10:37:45;38.13;;;21.90;;
15667;SDS011;7934;48.710;9.024;2023-03-04T10:40:18;37.07;;;20.00;;
15667;SDS011;7934;48.710;9.024;2023-03-04T10:42:48;36.10;;;21.70;;
15667;SDS011;7934;48.710;9.024;2023-03-04T10:48:01;43.13;;;22.93;;
15667;SDS011;7934;48.710;9.024;2023-03-04T10:50:28;40.93;;;23.43;;
15667;SDS011;7934;48.710;9.024;2023-03-04T10:52:56;39.50;;;28.15;;
15667;SDS011;7934;48.710;9.024;2023-03-04T10:55:23;37.97;;;24.70;;
15667;SDS011;7934;48.710;9.024;2023-03-04T10:57:53;44.13;;;25.13;;
15667;SDS011;7934;48.710;9.024;2023-03-04T11:03:27;41.10;;;25.60;;
15667;SDS011;7934;48.710;9.024;2023-03-04T11:06:14;43.97;;;25.57;;
15667;SDS011;7934;48.710;9.024;2023-03-04T11:08:42;41.07;;;26.07;;
15667;SDS011;7934;48.710;9.024;2023-03-04T11:11:20;40.33;;;25.80;;
15667;SDS011;7934;48.710;9.024;2023-03-04T11:13:52;43.43;;;26.60;;
15667;SDS011;7934;48.710;9.024;2023-03-04T11:16:25;46.83;;;27.13;;
15667;SDS011;7934;48.710;9.024;2023-03-04T11:18:54;43.07;;;25.63;;
15667;SDS011;7934;48.710;9.024;2023-03-04T11:21:26;52.10;;;25.67;;
15667;SDS011;7934;48.710;9.024;2023-03-04T11:23:59;43.80;;;25.93;;
15667;SDS011;7934;48.710;9.024;2023-03-04T11:26:28;44.33;;;23.37;;
15667;SDS011;7934;48.710;9.024;2023-03-04T11:28:59;43.60;;;25.23;;
15667;SDS011;7934;48.710;9.024;2023-03-04T11:31:29;43.67;;;25.00;;
15667;SDS011;7934;48.710;9.024;2023-03-04T11:34:00;51.70;;;26.63;;
15667;SDS011;7934;48.710;9.024;2023-03-04T11:36:30;53.70;;;26.97;;
15667;SDS011;7934;48.710;9.024;2023-03-04T11:38:59;39.57;;;24.70;;
15667;SDS011;7934;48.710;9.024;2023-03-04T11:41:28;45.03;;;25.27;;
15667;SDS011;7934;48.710;9.024;2023-03-04T11:43:56;48.70;;;27.07;;
15667;SDS011;7934;48.710;9.024;2023-03-04T11:46:48;41.00;;;22.57;;
15667;SDS011;7934;48.710;9.024;2023-03-04T11:49:28;48.90;;;26.40;;
15667;SDS011;7934;48.710;9.024;2023-03-04T11:52:01;43.40;;;25.13;;
15667;SDS011;7934;48.710;9.024;2023-03-04T11:54:31;51.83;;;25.17;;
15667;SDS011;7934;48.710;9.024;2023-03-04T11:57:02;44.43;;;24.93;;
15667;SDS011;7934;48.710;9.024;2023-03-04T12:02:28;48.60;;;25.57;;
15667;SDS011;7934;48.710;9.024;2023-03-04T12:07:57;40.63;;;23.23;;
15667;SDS011;7934;48.710;9.024;2023-03-04T12:15:56;37.93;;;23.00;;
15667;SDS011;7934;48.710;9.024;2023-03-04T12:18:30;43.97;;;24.43;;
15667;SDS011;7934;48.710;9.024;2023-03-04T12:21:06;43.40;;;24.20;;
15667;SDS011;7934;48.710;9.024;2023-03-04T12:23:42;38.80;;;24.73;;
15667;SDS011;7934;48.710;9.024;2023-03-04T12:26:15;44.63;;;25.37;;
15667;SDS011;7934;48.710;9.024;2023-03-04T12:28:48;40.53;;;24.30;;
15667;SDS011;7934;48.710;9.024;2023-03-04T12:31:35;41.23;;;25.93;;
15667;SDS011;7934;48.710;9.024;2023-03-04T12:36:51;41.13;;;23.07;;
15667;SDS011;7934;48.710;9.024;2023-03-04T12:39:23;42.47;;;24.43;;
15667;SDS011;7934;48.710;9.024;2023-03-04T12:41:53;43.93;;;23.70;;
15667;SDS011;7934;48.710;9.024;2023-03-04T12:44:32;34.03;;;21.97;;
15667;SDS011;7934;48.710;9.024;2023-03-04T12:47:07;37.67;;;22.87;;
15667;SDS011;7934;48.710;9.024;2023-03-04T12:49:40;39.23;;;21.87;;
15667;SDS011;7934;48.710;9.024;2023-03-04T12:52:13;40.47;;;25.80;;
15667;SDS011;7934;48.710;9.024;2023-03-04T12:54:42;36.60;;;22.10;;
15667;SDS011;7934;48.710;9.024;2023-03-04T12:57:11;39.40;;;22.77;;
15667;SDS011;7934;48.710;9.024;2023-03-04T12:59:40;40.40;;;21.33;;
15667;SDS011;7934;48.710;9.024;2023-03-04T13:02:14;32.67;;;20.67;;
15667;SDS011;7934;48.710;9.024;2023-03-04T13:04:46;32.60;;;20.70;;
15667;SDS011;7934;48.710;9.024;2023-03-04T13:07:19;36.43;;;20.53;;
15667;SDS011;7934;48.710;9.024;2023-03-04T13:09:49;34.83;;;21.00;;
15667;SDS011;7934;48.710;9.024;2023-03-04T13:12:21;35.17;;;21.70;;
15667;SDS011;7934;48.710;9.024;2023-03-04T13:17:46;37.30;;;23.20;;
15667;SDS011;7934;48.710;9.024;2023-03-04T13:20:18;38.80;;;23.80;;
15667;SDS011;7934;48.710;9.024;2023-03-04T13:22:48;37.73;;;24.17;;
15667;SDS011;7934;48.710;9.024;2023-03-04T13:25:31;38.80;;;24.20;;
15667;SDS011;7934;48.710;9.024;2023-03-04T13:28:11;40.07;;;23.93;;
15667;SDS011;7934;48.710;9.024;2023-03-04T13:30:41;39.63;;;22.77;;
15667;SDS011;7934;48.710;9.024;2023-03-04T13:35:57;43.57;;;24.17;;
15667;SDS011;7934;48.710;9.024;2023-03-04T13:38:32;42.70;;;25.37;;
15667;SDS011;7934;48.710;9.024;2023-03-04T13:41:06;42.53;;;23.70;;
15667;SDS011;7934;48.710;9.024;2023-03-04T13:43:36;44.40;;;24.90;;
15667;SDS011;7934;48.710;9.024;2023-03-04T13:49:00;40.53;;;24.80;;
15667;SDS011;7934;48.710;9.024;2023-03-04T13:51:28;43.63;;;26.53;;
15667;SDS011;7934;48.710;9.024;2023-03-04T13:54:06;43.33;;;24.43;;
15667;SDS011;7934;48.710;9.024;2023-03-04T13:56:33;43.13;;;25.67;;
15667;SDS011;7934;48.710;9.024;2023-03-04T13:59:03;47.43;;;25.70;;
15667;SDS011;7934;48.710;9.024;2023-03-04T14:01:34;45.60;;;24.07;;
15667;SDS011;7934;48.710;9.024;2023-03-04T14:04:09;49.40;;;24.07;;
15667;SDS011;7934;48.710;9.024;2023-03-04T14:06:40;40.73;;;23.67;;
15667;SDS011;7934;48.710;9.024;2023-03-04T14:09:13;53.07;;;25.13;;
15667;SDS011;7934;48.710;9.024;2023-03-04T14:11:40;46.90;;;24.37;;
15667;SDS011;7934;48.710;9.024;2023-03-04T14:14:11;44.27;;;24.47;;
15667;SDS011;7934;48.710;9.024;2023-03-04T14:16:39;48.63;;;24.83;;
15667;SDS011;7934;48.710;9.024;2023-03-04T14:19:13;45.77;;;24.67;;
15667;SDS011;7934;48.710;9.024;2023-03-04T14:21:43;42.93;;;24.27;;
15667;SDS011;7934;48.710;9.024;2023-03-04T14:24:14;45.67;;;22.80;;
15667;SDS011;7934;48.710;9.024;2023-03-04T14:26:46;37.90;;;21.37;;
15667;SDS011;7934;48.710;9.024;2023-03-04T14:29:20;41.83;;;22.47;;
15667;SDS011;7934;48.710;9.024;2023-03-04T14:31:47;41.70;;;21.30;;
15667;SDS011;7934;48.710;9.024;2023-03-04T14:34:16;39.87;;;22.17;;
15667;SDS011;7934;48.710;9.024;2023-03-04T14:36:47;40.37;;;23.50;;
15667;SDS011;7934;48.710;9.024;2023-03-04T14:39:15;39.80;;;21.63;;
15667;SDS011;7934;48.710;9.024;2023-03-04T14:41:44;41.37;;;22.53;;
15667;SDS011;7934;48.710;9.024;2023-03-04T14:44:16;43.57;;;22.03;;
15667;SDS011;7934;48.710;9.024;2023-03-04T14:46:47;45.10;;;20.60;;
15667;SDS011;7934;48.710;9.024;2023-03-04T14:49:14;37.97;;;19.83;;
15667;SDS011;7934;48.710;9.024;2023-03-04T14:51:42;43.87;;;21.30;;
15667;SDS011;7934;48.710;9.024;2023-03-04T14:54:27;40.97;;;20.83;;
15667;SDS011;7934;48.710;9.024;2023-03-04T14:56:55;43.03;;;21.03;;
15667;SDS011;7934;48.710;9.024;2023-03-04T14:59:34;48.90;;;22.03;;
15667;SDS011;7934;48.710;9.024;2023-03-04T15:02:07;48.97;;;21.20;;
15667;SDS011;7934;48.710;9.024;2023-03-04T15:04:35;42.97;;;21.90;;
15667;SDS011;7934;48.710;9.024;2023-03-04T15:07:03;53.30;;;23.23;;
15667;SDS011;7934;48.710;9.024;2023-03-04T15:09:32;46.00;;;20.60;;
15667;SDS011;7934;48.710;9.024;2023-03-04T15:12:00;49.63;;;21.83;;
15667;SDS011;7934;48.710;9.024;2023-03-04T15:14:43;44.33;;;21.23;;
15667;SDS011;7934;48.710;9.024;2023-03-04T15:17:22;42.77;;;20.80;;
15667;SDS011;7934;48.710;9.024;2023-03-04T15:19:57;48.33;;;21.13;;
15667;SDS011;7934;48.710;9.024;2023-03-04T15:22:24;51.17;;;20.87;;
15667;SDS011;7934;48.710;9.024;2023-03-04T15:24:51;41.23;;;20.60;;
15667;SDS011;7934;48.710;9.024;2023-03-04T15:27:18;42.63;;;22.40;;
15667;SDS011;7934;48.710;9.024;2023-03-04T15:29:49;44.63;;;20.13;;
15667;SDS011;7934;48.710;9.024;2023-03-04T15:32:19;44.73;;;20.10;;
15667;SDS011;7934;48.710;9.024;2023-03-04T15:34:47;39.63;;;20.17;;
15667;SDS011;7934;48.710;9.024;2023-03-04T15:37:14;47.10;;;21.23;;
15667;SDS011;7934;48.710;9.024;2023-03-04T15:39:43;52.17;;;21.47;;
15667;SDS011;7934;48.710;9.024;2023-03-04T15:42:10;46.03;;;20.33;;
15667;SDS011;7934;48.710;9.024;2023-03-04T15:44:38;42.13;;;20.97;;
15667;SDS011;7934;48.710;9.024;2023-03-04T15:47:07;38.40;;;19.83;;
15667;SDS011;7934;48.710;9.024;2023-03-04T15:49:37;47.33;;;22.30;;
15667;SDS011;7934;48.710;9.024;2023-03-04T15:52:04;40.33;;;20.80;;
15667;SDS011;7934;48.710;9.024;2023-03-04T15:54:32;53.77;;;21.20;;
15667;SDS011;7934;48.710;9.024;2023-03-04T15:56:59;45.37;;;21.80;;
15667;SDS011;7934;48.710;9.024;2023-03-04T15:59:26;48.17;;;21.40;;
15667;SDS011;7934;48.710;9.024;2023-03-04T16:01:53;48.47;;;21.37;;
15667;SDS011;7934;48.710;9.024;2023-03-04T16:04:22;47.07;;;21.13;;
15667;SDS011;7934;48.710;9.024;2023-03-04T16:06:49;47.10;;;20.60;;
15667;SDS011;7934;48.710;9.024;2023-03-04T16:09:17;39.63;;;19.73;;
15667;SDS011;7934;48.710;9.024;2023-03-04T16:11:46;43.10;;;19.57;;
15667;SDS011;7934;48.710;9.024;2023-03-04T16:14:13;41.63;;;19.67;;
15667;SDS011;7934;48.710;9.024;2023-03-04T16:16:40;37.47;;;18.17;;
15667;SDS011;7934;48.710;9.024;2023-03-04T16:19:10;43.83;;;17.17;;
15667;SDS011;7934;48.710;9.024;2023-03-04T16:21:38;35.20;;;16.70;;
15667;SDS011;7934;48.710;9.024;2023-03-04T16:24:08;41.20;;;17.83;;
15667;SDS011;7934;48.710;9.024;2023-03-04T16:26:36;36.53;;;17.77;;
15667;SDS011;7934;48.710;9.024;2023-03-04T16:29:03;43.23;;;18.00;;
15667;SDS011;7934;48.710;9.024;2023-03-04T16:31:30;41.63;;;18.60;;
15667;SDS011;7934;48.710;9.024;2023-03-04T16:33:57;32.93;;;15.80;;
15667;SDS011;7934;48.710;9.024;2023-03-04T16:36:27;39.73;;;18.40;;
15667;SDS011;7934;48.710;9.024;2023-03-04T16:38:56;40.93;;;18.77;;
15667;SDS011;7934;48.710;9.024;2023-03-04T16:41:27;35.90;;;16.87;;
15667;SDS011;7934;48.710;9.024;2023-03-04T16:43:56;37.70;;;16.63;;
15667;SDS011;7934;48.710;9.024;2023-03-04T16:46:24;36.87;;;17.07;;
15667;SDS011;7934;48.710;9.024;2023-03-04T16:48:51;34.50;;;16.60;;
15667;SDS011;7934;48.710;9.024;2023-03-04T16:51:18;36.77;;;17.83;;
15667;SDS011;7934;48.710;9.024;2023-03-04T16:53:47;33.00;;;17.83;;
15667;SDS011;7934;48.710;9.024;2023-03-04T16:56:16;35.50;;;17.60;;
15667;SDS011;7934;48.710;9.024;2023-03-04T16:58:44;39.37;;;17.23;;
15667;SDS011;7934;48.710;9.024;2023-03-04T17:01:13;35.23;;;18.37;;
15667;SDS011;7934;48.710;9.024;2023-03-04T17:03:42;41.23;;;17.73;;
15667;SDS011;7934;48.710;9.024;2023-03-04T17:06:09;39.43;;;17.90;;
15667;SDS011;7934;48.710;9.024;2023-03-04T17:08:37;35.53;;;16.57;;
15667;SDS011;7934;48.710;9.024;2023-03-04T17:11:04;40.53;;;17.03;;
15667;SDS011;7934;48.710;9.024;2023-03-04T17:13:32;38.73;;;18.30;;
15667;SDS011;7934;48.710;9.024;2023-03-04T17:16:00;35.90;;;16.47;;
15667;SDS011;7934;48.710;9.024;2023-03-04T17:18:27;39.63;;;16.80;;
15667;SDS011;7934;48.710;9.024;2023-03-04T17:21:00;35.73;;;16.80;;
15667;SDS011;7934;48.710;9.024;2023-03-04T17:23:27;35.13;;;16.57;;
15667;SDS011;7934;48.710;9.024;2023-03-04T17:25:54;34.40;;;16.17;;
15667;SDS011;7934;48.710;9.024;2023-03-04T17:28:22;40.17;;;16.70;;
15667;SDS011;7934;48.710;9.024;2023-03-04T17:30:50;35.67;;;15.87;;
15667;SDS011;7934;48.710;9.024;2023-03-04T17:33:17;35.60;;;17.53;;
15667;SDS011;7934;48.710;9.024;2023-03-04T17:35:45;37.63;;;17.07;;
15667;SDS011;7934;48.710;9.024;2023-03-04T17:38:12;44.27;;;18.13;;
15667;SDS011;7934;48.710;9.024;2023-03-04T17:40:39;47.40;;;17.80;;
15667;SDS011;7934;48.710;9.024;2023-03-04T17:43:07;41.33;;;17.70;;
15667;SDS011;7934;48.710;9.024;2023-03-04T17:45:36;38.23;;;16.50;;
15667;SDS011;7934;48.710;9.024;2023-03-04T17:48:05;35.27;;;16.00;;
15667;SDS011;7934;48.710;9.024;2023-03-04T17:50:32;40.07;;;18.13;;
15667;SDS011;7934;48.710;9.024;2023-03-04T17:52:59;34.50;;;16.73;;
15667;SDS011;7934;48.710;9.024;2023-03-04T17:55:27;33.47;;;16.30;;
15667;SDS011;7934;48.710;9.024;2023-03-04T17:57:54;32.00;;;16.20;;
15667;SDS011;7934;48.710;9.024;2023-03-04T18:00:22;39.00;;;17.03;;
15667;SDS011;7934;48.710;9.024;2023-03-04T18:02:49;28.80;;;15.93;;
15667;SDS011;7934;48.710;9.024;2023-03-04T18:05:18;38.53;;;16.80;;
15667;SDS011;7934;48.710;9.024;2023-03-04T18:07:45;35.30;;;16.47;;
15667;SDS011;7934;48.710;9.024;2023-03-04T18:10:12;38.17;;;16.67;;
15667;SDS011;7934;48.710;9.024;2023-03-04T18:12:39;41.80;;;16.33;;
15667;SDS011;7934;48.710;9.024;2023-03-04T18:15:06;38.23;;;16.70;;
15667;SDS011;7934;48.710;9.024;2023-03-04T18:17:34;38.17;;;16.63;;
15667;SDS011;7934;48.710;9.024;2023-03-04T18:20:01;44.63;;;18.27;;
15667;SDS011;7934;48.710;9.024;2023-03-04T18:22:29;34.97;;;17.70;;
15667;SDS011;7934;48.710;9.024;2023-03-04T18:24:56;41.03;;;18.10;;
15667;SDS011;7934;48.710;9.024;2023-03-04T18:27:24;39.67;;;16.57;;
15667;SDS011;7934;48.710;9.024;2023-03-04T18:29:51;36.43;;;18.37;;
15667;SDS011;7934;48.710;9.024;2023-03-04T18:32:20;38.60;;;17.43;;
15667;SDS011;7934;48.710;9.024;2023-03-04T18:34:47;39.70;;;18.13;;
15667;SDS011;7934;48.710;9.024;2023-03-04T18:37:14;35.07;;;17.40;;
15667;SDS011;7934;48.710;9.024;2023-03-04T18:39:43;37.63;;;16.97;;
15667;SDS011;7934;48.710;9.024;2023-03-04T18:42:10;41.50;;;18.40;;
15667;SDS011;7934;48.710;9.024;2023-03-04T18:44:37;40.17;;;16.17;;
15667;SDS011;7934;48.710;9.024;2023-03-04T18:47:04;40.57;;;18.07;;
15667;SDS011;7934;48.710;9.024;2023-03-04T18:49:32;37.60;;;16.57;;
15667;SDS011;7934;48.710;9.024;2023-03-04T18:52:00;31.53;;;15.90;;
15667;SDS011;7934;48.710;9.024;2023-03-04T18:54:27;38.87;;;17.33;;
15667;SDS011;7934;48.710;9.024;2023-03-04T18:56:56;35.57;;;16.23;;
15667;SDS011;7934;48.710;9.024;2023-03-04T18:59:26;31.70;;;15.60;;
15667;SDS011;7934;48.710;9.024;2023-03-04T19:01:56;35.17;;;16.60;;
15667;SDS011;7934;48.710;9.024;2023-03-04T19:04:25;45.87;;;17.27;;
15667;SDS011;7934;48.710;9.024;2023-03-04T19:06:53;35.67;;;15.87;;
15667;SDS011;7934;48.710;9.024;2023-03-04T19:09:21;41.60;;;17.27;;
15667;SDS011;7934;48.710;9.024;2023-03-04T19:11:48;39.63;;;16.93;;
15667;SDS011;7934;48.710;9.024;2023-03-04T19:14:17;45.77;;;17.67;;
15667;SDS011;7934;48.710;9.024;2023-03-04T19:16:44;42.43;;;17.80;;
15667;SDS011;7934;48.710;9.024;2023-03-04T19:19:12;38.90;;;17.33;;